Time;durP1;ratioP1;P1;durP2;ratioP2;P2;SDS_P1;SDS_P2;PMS_P1;PMS_P2;Temp;Humidity;BMP_temperature;BMP_pressure;BME280_temperature;BME280_humidity;BME280_pressure;Samples;Min_cycle;Max_cycle;Signal;HPM_P1;HPM_P2
2023/10/28 00:01:30;;;;;;;11.60;4.40;;;;;;;11.22;84.83;99404.81;5051330;28;20154;-62
2023/10/28 00:03:57;;;;;;;12.55;4.63;;;;;;;11.22;85.09;99402.88;5059553;28;20036;-62
2023/10/28 00:06:22;;;;;;;9.75;4.22;;;;;;;11.22;85.17;99404.81;5052871;28;20022;-62
2023/10/28 00:08:48;;;;;;;11.93;4.47;;;;;;;11.21;85.27;99404.00;5060285;28;20368;-62
2023/10/28 00:11:13;;;;;;;13.95;4.45;;;;;;;11.20;85.34;99407.91;5052339;28;20472;-62
2023/10/28 00:13:47;;;;;;;7.15;4.00;;;;;;;11.21;85.73;99405.97;5053049;28;20029;-63
2023/10/28 00:16:12;;;;;;;9.70;4.25;;;;;;;11.20;85.74;99409.84;5052840;28;20400;-62
2023/10/28 00:18:39;;;;;;;12.20;4.30;;;;;;;11.21;85.72;99409.56;5053236;28;20108;-62
2023/10/28 00:21:07;;;;;;;9.55;4.20;;;;;;;11.22;85.68;99402.88;5057249;28;20017;-62
2023/10/28 00:23:33;;;;;;;13.65;4.15;;;;;;;11.22;85.59;99400.09;5058306;28;23122;-62
2023/10/28 00:26:03;;;;;;;9.32;3.38;;;;;;;11.26;86.22;99405.91;5048635;28;20129;-62
2023/10/28 00:28:32;;;;;;;10.77;3.92;;;;;;;11.25;86.08;99395.91;5045382;28;20036;-62
2023/10/28 00:30:59;;;;;;;9.18;3.70;;;;;;;11.30;85.93;99401.41;5052028;28;20067;-62
2023/10/28 00:33:25;;;;;;;7.35;3.72;;;;;;;11.33;85.88;99400.84;5052475;28;20070;-62
2023/10/28 00:35:50;;;;;;;8.23;3.88;;;;;;;11.32;85.68;99396.41;5051403;28;20480;-62
2023/10/28 00:38:15;;;;;;;9.07;3.70;;;;;;;11.37;86.07;99409.41;5051548;28;20037;-62
2023/10/28 00:40:42;;;;;;;11.52;3.97;;;;;;;11.35;86.00;99398.56;5051702;28;20476;-62
2023/10/28 00:43:10;;;;;;;12.93;3.78;;;;;;;11.34;85.77;99407.22;5038175;28;20255;-62
2023/10/28 00:45:36;;;;;;;9.25;3.35;;;;;;;11.33;85.88;99400.84;5034617;28;20543;-63
2023/10/28 00:48:01;;;;;;;11.63;3.40;;;;;;;11.35;86.07;99409.69;5031835;28;20033;-62
2023/10/28 00:50:29;;;;;;;8.52;3.28;;;;;;;11.35;85.91;99406.91;5038152;28;20029;-62
2023/10/28 00:52:55;;;;;;;12.68;3.63;;;;;;;11.32;86.07;99404.75;5069657;28;20534;-62
2023/10/28 00:55:22;;;;;;;9.13;2.92;;;;;;;11.33;86.07;99406.38;5071528;28;20029;-62
2023/10/28 00:57:49;;;;;;;10.05;2.85;;;;;;;11.37;86.22;99412.19;5071621;28;20094;-62
2023/10/28 01:00:15;;;;;;;7.95;2.88;;;;;;;11.33;86.59;99405.56;5049234;28;20025;-62
2023/10/28 01:02:42;;;;;;;9.65;3.28;;;;;;;11.35;86.32;99400.53;5038391;28;20751;-62
2023/10/28 01:05:11;;;;;;;6.00;2.70;;;;;;;11.34;86.18;99413.59;5031817;28;20083;-62
2023/10/28 01:07:38;;;;;;;6.45;2.60;;;;;;;11.34;86.49;99402.47;5053443;28;20063;-62
2023/10/28 01:10:08;;;;;;;8.63;3.05;;;;;;;11.35;86.26;99414.41;5071240;28;20025;-62
2023/10/28 01:12:33;;;;;;;6.68;2.70;;;;;;;11.33;86.23;99409.16;5070214;28;20036;-62
2023/10/28 01:15:02;;;;;;;8.73;2.92;;;;;;;11.32;86.26;99407.50;5056183;28;20372;-62
2023/10/28 01:17:31;;;;;;;7.93;2.75;;;;;;;11.31;86.23;99411.38;5049270;28;20555;-62
2023/10/28 01:19:57;;;;;;;4.65;2.38;;;;;;;11.30;86.57;99402.22;5046007;28;20028;-63
2023/10/28 01:22:26;;;;;;;7.30;2.33;;;;;;;11.29;86.71;99399.75;5032158;28;20512;-62
2023/10/28 01:24:52;;;;;;;8.60;2.85;;;;;;;11.33;86.02;99400.84;5041883;28;20064;-62
2023/10/28 01:27:19;;;;;;;6.00;2.50;;;;;;;11.31;86.38;99409.44;5050759;28;20021;-62
2023/10/28 01:29:45;;;;;;;7.45;2.20;;;;;;;11.28;86.22;99404.50;5050010;28;20397;-62
2023/10/28 01:32:12;;;;;;;7.40;2.45;;;;;;;11.31;85.97;99408.63;5051319;28;20033;-62
2023/10/28 01:34:49;;;;;;;6.95;2.25;;;;;;;11.33;86.09;99395.28;5050514;28;20380;-62
2023/10/28 01:37:16;;;;;;;5.22;2.35;;;;;;;11.34;86.14;99404.44;5047161;28;20070;-62
2023/10/28 01:39:50;;;;;;;5.57;2.42;;;;;;;11.33;86.15;99405.56;5044064;28;20748;-62
2023/10/28 01:42:16;;;;;;;6.47;2.17;;;;;;;11.37;86.19;99404.69;5043850;28;20035;-62
2023/10/28 01:44:41;;;;;;;5.40;2.00;;;;;;;11.39;86.27;99404.38;5064264;28;20021;-62
2023/10/28 01:47:13;;;;;;;7.80;2.17;;;;;;;11.36;85.96;99405.81;5061131;28;20112;-62
2023/10/28 01:49:38;;;;;;;4.85;2.03;;;;;;;11.36;85.68;99410.50;5044691;28;20067;-62
2023/10/28 01:52:07;;;;;;;6.72;2.17;;;;;;;11.32;85.57;99404.75;5040503;28;20061;-62
2023/10/28 01:54:33;;;;;;;3.47;2.22;;;;;;;11.31;85.69;99403.06;5030859;28;20461;-62
2023/10/28 01:57:00;;;;;;;4.63;1.80;;;;;;;11.34;85.99;99399.69;5029996;28;20029;-62
2023/10/28 01:59:25;;;;;;;5.35;1.90;;;;;;;11.33;86.03;99398.06;5046014;28;20017;-62
2023/10/28 02:01:51;;;;;;;5.55;2.08;;;;;;;11.35;85.61;99406.09;5050088;28;20028;-62
2023/10/28 02:04:16;;;;;;;6.03;1.92;;;;;;;11.28;85.78;99395.34;5053776;28;20021;-62
2023/10/28 02:06:41;;;;;;;4.60;1.88;;;;;;;11.28;85.98;99403.66;5066553;28;20533;-62
2023/10/28 02:09:08;;;;;;;4.50;1.40;;;;;;;11.24;85.61;99391.50;5038931;28;20025;-62
2023/10/28 02:11:34;;;;;;;4.45;2.00;;;;;;;11.20;85.78;99390.38;5032091;28;20080;-62
2023/10/28 02:14:00;;;;;;;4.93;1.70;;;;;;;11.21;86.00;99392.06;5030992;28;20037;-62
2023/10/28 02:16:25;;;;;;;4.95;1.67;;;;;;;11.19;86.05;99388.75;5045168;28;20591;-62
2023/10/28 02:18:51;;;;;;;4.90;1.95;;;;;;;11.16;85.46;99389.31;5050349;28;20028;-62
2023/10/28 02:21:20;;;;;;;5.45;1.90;;;;;;;11.17;85.97;99391.81;5054119;28;20388;-62
2023/10/28 02:23:45;;;;;;;5.13;1.90;;;;;;;11.20;85.83;99393.16;5053234;28;20033;-61
2023/10/28 02:26:10;;;;;;;4.22;2.20;;;;;;;11.22;85.67;99400.09;5048676;28;20115;-62
2023/10/28 02:28:35;;;;;;;5.20;2.00;;;;;;;11.21;85.83;99387.34;5042275;28;20046;-62
2023/10/28 02:31:01;;;;;;;5.30;2.10;;;;;;;11.25;85.37;99393.13;5033361;28;20032;-62
2023/10/28 02:33:26;;;;;;;4.95;1.90;;;;;;;11.21;85.42;99394.84;5051236;28;20106;-62
2023/10/28 02:35:52;;;;;;;4.75;1.70;;;;;;;11.25;84.91;99395.91;5073567;28;20128;-62
2023/10/28 02:38:17;;;;;;;5.25;1.95;;;;;;;11.24;85.11;99391.50;5073022;28;20037;-62
2023/10/28 02:40:48;;;;;;;5.35;2.10;;;;;;;11.25;84.89;99385.63;5073942;28;20028;-62
2023/10/28 02:43:14;;;;;;;3.40;1.58;;;;;;;11.22;84.88;99396.50;5061029;28;20036;-62
2023/10/28 02:45:39;;;;;;;4.95;1.70;;;;;;;11.22;84.89;99399.28;5049358;28;20370;-62
2023/10/28 02:48:04;;;;;;;4.57;2.05;;;;;;;11.19;84.53;99402.63;5046710;28;20415;-62
2023/10/28 02:50:30;;;;;;;2.53;1.40;;;;;;;11.21;84.75;99401.22;5049802;28;20072;-62
2023/10/28 02:52:59;;;;;;;4.18;1.55;;;;;;;11.18;84.75;99398.19;5043375;28;20080;-62
2023/10/28 02:55:25;;;;;;;3.28;1.70;;;;;;;11.16;84.43;99403.22;5033353;28;20440;-62
2023/10/28 02:57:50;;;;;;;4.93;1.75;;;;;;;11.14;84.63;99402.69;5047728;28;20025;-62
2023/10/28 03:00:15;;;;;;;5.30;1.63;;;;;;;11.12;84.37;99396.59;5049852;28;20045;-62
2023/10/28 03:02:41;;;;;;;2.72;1.45;;;;;;;11.12;84.64;99405.78;5047026;28;20041;-62
2023/10/28 03:05:06;;;;;;;2.75;1.88;;;;;;;11.14;84.56;99409.06;5056680;28;20552;-62
2023/10/28 03:07:32;;;;;;;3.53;2.00;;;;;;;11.11;84.66;99417.16;5049427;28;20028;-62
2023/10/28 03:09:58;;;;;;;4.65;2.22;;;;;;;11.11;84.28;99408.81;5052374;28;20029;-62
2023/10/28 03:12:23;;;;;;;5.40;2.00;;;;;;;11.07;84.35;99403.84;5051634;28;20491;-62
2023/10/28 03:14:49;;;;;;;3.22;1.90;;;;;;;11.12;83.90;99404.91;5048242;28;20038;-62
2023/10/28 03:17:14;;;;;;;4.50;1.85;;;;;;;11.10;83.88;99402.44;5048394;28;20036;-62
2023/10/28 03:19:39;;;;;;;4.03;1.95;;;;;;;11.12;83.75;99405.78;5045436;28;20449;-62
2023/10/28 03:22:04;;;;;;;4.82;2.00;;;;;;;11.16;83.57;99405.97;5040473;28;20033;-62
2023/10/28 03:24:30;;;;;;;1.85;1.40;;;;;;;11.14;83.85;99406.28;5035200;28;20505;-62
2023/10/28 03:26:55;;;;;;;3.15;1.85;;;;;;;11.14;83.40;99411.03;5032059;28;20041;-62
2023/10/28 03:29:20;;;;;;;2.90;1.80;;;;;;;11.07;83.48;99408.56;5048260;28;20021;-62
2023/10/28 03:31:46;;;;;;;3.60;1.52;;;;;;;11.12;83.77;99407.69;5031809;28;20034;-62
2023/10/28 03:34:11;;;;;;;3.60;1.88;;;;;;;11.10;83.65;99398.84;5057363;28;20029;-62
2023/10/28 03:36:36;;;;;;;3.78;1.70;;;;;;;11.10;83.35;99404.41;5051307;28;20035;-62
2023/10/28 03:39:02;;;;;;;3.28;1.50;;;;;;;11.05;83.27;99400.53;5034600;28;20072;-62
2023/10/28 03:41:27;;;;;;;4.45;1.92;;;;;;;11.06;83.11;99401.38;5046296;28;20028;-62
2023/10/28 03:43:52;;;;;;;4.50;1.75;;;;;;;11.06;83.09;99404.16;5032986;28;20029;-62
2023/10/28 03:46:21;;;;;;;3.10;1.90;;;;;;;11.06;83.13;99395.81;5047355;28;20120;-62
2023/10/28 03:48:46;;;;;;;3.20;1.83;;;;;;;11.05;83.12;99402.50;5043084;28;20086;-62
2023/10/28 03:51:12;;;;;;;3.97;1.83;;;;;;;11.09;83.47;99406.34;5037779;28;20029;-63
2023/10/28 03:53:37;;;;;;;4.47;1.75;;;;;;;11.09;83.03;99405.53;5038883;28;20484;-62
2023/10/28 03:56:03;;;;;;;2.38;1.42;;;;;;;11.04;82.76;99398.91;5042283;28;20039;-62
2023/10/28 03:58:54;;;;;;;2.50;1.63;;;;;;;11.04;82.84;99396.13;5041843;28;20072;-62
2023/10/28 04:01:20;;;;;;;4.18;1.98;;;;;;;11.09;83.13;99395.25;5039520;28;20447;-61
2023/10/28 04:03:45;;;;;;;4.38;1.92;;;;;;;11.12;82.88;99399.34;5052431;28;20029;-63
2023/10/28 04:06:10;;;;;;;3.42;1.73;;;;;;;11.11;82.63;99392.97;5033563;28;20411;-63
2023/10/28 04:08:36;;;;;;;4.88;1.80;;;;;;;11.04;82.68;99398.91;5050821;28;20082;-61
2023/10/28 04:11:04;;;;;;;5.00;2.08;;;;;;;11.06;82.93;99385.53;5047439;28;20036;-62
2023/10/28 04:13:30;;;;;;;3.88;1.63;;;;;;;11.07;83.22;99394.69;5045934;28;20033;-62
2023/10/28 04:15:59;;;;;;;3.08;1.83;;;;;;;11.10;83.11;99394.13;5039228;28;20391;-62
2023/10/28 04:18:24;;;;;;;4.30;1.92;;;;;;;11.08;82.76;99393.56;5051153;28;20036;-62
2023/10/28 04:20:52;;;;;;;3.40;1.83;;;;;;;11.09;82.90;99383.31;5051891;28;20021;-62
2023/10/28 04:23:18;;;;;;;5.25;1.92;;;;;;;11.04;82.65;99382.25;5051241;28;20032;-62
2023/10/28 04:25:43;;;;;;;4.70;1.80;;;;;;;11.05;82.87;99389.44;5051315;28;20038;-62
2023/10/28 04:28:09;;;;;;;3.70;1.92;;;;;;;11.05;82.82;99381.09;5052414;28;20037;-62
2023/10/28 04:30:34;;;;;;;3.40;1.75;;;;;;;11.05;82.86;99377.50;5044940;28;20038;-62
2023/10/28 04:33:00;;;;;;;5.97;1.92;;;;;;;11.04;83.05;99373.91;5046872;28;20056;-62
2023/10/28 04:35:25;;;;;;;5.03;2.03;;;;;;;11.04;82.84;99376.69;5044777;28;20047;-62
2023/10/28 04:37:50;;;;;;;2.55;1.63;;;;;;;10.99;82.46;99379.50;5054688;28;20027;-62
2023/10/28 04:40:15;;;;;;;4.72;1.65;;;;;;;11.02;82.88;99380.88;5064201;28;20422;-63
2023/10/28 04:42:41;;;;;;;3.80;1.73;;;;;;;10.98;82.72;99371.47;5057446;28;20037;-62
2023/10/28 04:45:07;;;;;;;4.60;1.52;;;;;;;10.99;83.03;99379.50;5046782;28;20038;-62
2023/10/28 04:47:32;;;;;;;5.18;2.05;;;;;;;10.95;83.01;99380.38;5045470;28;20473;-63
2023/10/28 04:50:01;;;;;;;5.47;1.80;;;;;;;10.98;83.20;99377.00;5052818;28;20040;-62
2023/10/28 04:52:26;;;;;;;4.03;1.80;;;;;;;10.96;83.14;99377.28;5058009;28;20040;-62
2023/10/28 04:54:52;;;;;;;3.95;2.17;;;;;;;11.00;83.28;99375.63;5064405;28;20020;-62
2023/10/28 04:57:17;;;;;;;3.90;1.80;;;;;;;11.02;82.96;99364.22;5050447;28;20033;-62
2023/10/28 04:59:42;;;;;;;5.30;2.10;;;;;;;11.01;82.62;99368.09;5045221;28;20037;-62
2023/10/28 05:02:07;;;;;;;3.92;2.28;;;;;;;11.01;83.01;99360.59;5048924;28;20037;-62
2023/10/28 05:04:33;;;;;;;5.82;1.80;;;;;;;11.03;82.54;99363.91;5041681;28;20045;-62
2023/10/28 05:06:59;;;;;;;4.60;2.05;;;;;;;11.04;82.85;99367.50;5040458;28;20037;-62
2023/10/28 05:09:24;;;;;;;4.65;1.70;;;;;;;11.03;83.05;99361.13;5047503;28;20489;-64
2023/10/28 05:11:56;;;;;;;4.50;1.75;;;;;;;11.02;82.60;99362.25;5044892;28;20143;-63
2023/10/28 05:14:25;;;;;;;5.07;1.80;;;;;;;11.00;82.94;99358.09;5049118;28;20029;-63
2023/10/28 05:16:52;;;;;;;4.50;2.17;;;;;;;11.00;83.06;99355.31;5045376;28;20488;-63
2023/10/28 05:19:20;;;;;;;5.68;1.88;;;;;;;10.99;83.10;99353.69;5051583;28;20032;-63
2023/10/28 05:21:46;;;;;;;5.57;2.08;;;;;;;10.98;82.89;99354.81;5046844;28;20028;-62
2023/10/28 05:24:11;;;;;;;5.13;1.83;;;;;;;10.96;83.27;99355.06;5044124;28;20098;-62
2023/10/28 05:26:37;;;;;;;2.53;1.98;;;;;;;10.95;83.04;99367.31;5045156;28;20033;-62
2023/10/28 05:29:02;;;;;;;3.67;1.90;;;;;;;10.97;82.98;99358.72;5050971;28;20028;-63
2023/10/28 05:31:30;;;;;;;4.80;1.88;;;;;;;10.98;83.20;99358.41;5046902;28;20891;-61
2023/10/28 05:33:56;;;;;;;4.07;1.88;;;;;;;10.94;83.11;99362.88;5047043;28;20110;-62
2023/10/28 05:36:27;;;;;;;6.65;1.88;;;;;;;10.94;83.14;99360.09;5047553;28;20049;-62
2023/10/28 05:38:54;;;;;;;4.07;2.00;;;;;;;10.93;83.03;99364.00;5044271;28;20033;-63
2023/10/28 05:41:22;;;;;;;5.15;1.80;;;;;;;10.94;83.64;99359.28;5049136;28;20017;-62
2023/10/28 05:43:48;;;;;;;4.07;1.70;;;;;;;10.94;83.45;99357.34;5048806;28;20522;-62
2023/10/28 05:46:14;;;;;;;2.83;1.60;;;;;;;10.96;83.43;99360.63;5050197;28;20035;-62
2023/10/28 05:48:39;;;;;;;5.15;1.80;;;;;;;10.99;83.55;99362.00;5045337;28;20094;-62
2023/10/28 05:51:05;;;;;;;4.63;1.83;;;;;;;10.98;83.20;99369.50;5046871;28;20040;-63
2023/10/28 05:53:31;;;;;;;4.10;1.70;;;;;;;11.00;83.39;99370.06;5043467;28;20049;-63
2023/10/28 05:55:57;;;;;;;4.20;1.80;;;;;;;11.00;83.13;99375.63;5052223;28;20059;-62
2023/10/28 05:58:22;;;;;;;5.90;1.85;;;;;;;11.01;83.35;99370.88;5054383;28;20036;-62
2023/10/28 06:00:48;;;;;;;4.05;1.63;;;;;;;10.99;83.39;99373.13;5047901;28;20024;-62
2023/10/28 06:03:14;;;;;;;3.78;1.50;;;;;;;10.97;83.66;99376.19;5054181;28;20029;-62
2023/10/28 06:05:39;;;;;;;6.53;1.90;;;;;;;10.95;83.46;99378.41;5049098;28;20036;-62
2023/10/28 06:08:06;;;;;;;6.85;1.70;;;;;;;10.97;83.78;99380.91;5052445;28;20475;-62
2023/10/28 06:10:32;;;;;;;4.88;1.90;;;;;;;10.96;83.71;99385.63;5052735;28;20425;-62
2023/10/28 06:12:57;;;;;;;6.93;1.77;;;;;;;10.98;83.64;99388.94;5053940;28;20032;-62
2023/10/28 06:15:24;;;;;;;5.32;1.80;;;;;;;10.99;83.88;99385.03;5053802;28;20447;-62
2023/10/28 06:17:50;;;;;;;6.50;1.90;;;;;;;10.98;84.10;99386.16;5054802;28;20037;-62
2023/10/28 06:20:16;;;;;;;4.43;2.35;;;;;;;11.01;84.27;99387.53;5052770;28;20131;-62
2023/10/28 06:22:42;;;;;;;6.07;2.05;;;;;;;11.00;84.28;99385.88;5048922;28;20029;-62
2023/10/28 06:25:08;;;;;;;4.82;1.80;;;;;;;11.01;84.18;99393.09;5048645;28;20037;-62
2023/10/28 06:27:33;;;;;;;5.43;1.83;;;;;;;11.03;84.19;99388.88;5051753;28;20388;-63
2023/10/28 06:29:59;;;;;;;6.93;1.77;;;;;;;11.02;84.32;99390.00;5049583;28;20024;-62
2023/10/28 06:32:27;;;;;;;7.22;2.10;;;;;;;11.03;84.59;99391.66;5048200;28;20335;-61
2023/10/28 06:34:55;;;;;;;3.70;2.00;;;;;;;11.00;84.86;99392.28;5053402;28;20025;-61
2023/10/28 06:37:21;;;;;;;7.57;1.98;;;;;;;11.00;85.37;99391.41;5042841;28;20067;-62
2023/10/28 06:39:47;;;;;;;4.55;2.15;;;;;;;10.98;85.69;99385.34;5049320;28;20049;-61
2023/10/28 06:42:13;;;;;;;6.78;1.83;;;;;;;10.98;85.94;99383.38;5047057;28;20056;-61
2023/10/28 06:44:38;;;;;;;3.22;1.70;;;;;;;10.99;86.23;99393.38;5046163;28;20029;-62
2023/10/28 06:47:07;;;;;;;6.90;2.00;;;;;;;11.02;86.49;99392.78;5048701;28;20078;-62
2023/10/28 06:49:51;;;;;;;5.07;2.00;;;;;;;11.02;86.27;99386.41;5048963;28;20494;-61
2023/10/28 06:52:16;;;;;;;8.00;1.90;;;;;;;11.05;86.38;99389.44;5051437;28;20064;-59
2023/10/28 06:54:42;;;;;;;3.50;1.60;;;;;;;11.06;86.58;99393.03;5051160;28;20068;-59
2023/10/28 06:57:07;;;;;;;5.28;1.98;;;;;;;11.06;86.49;99391.09;5044743;28;20091;-59
2023/10/28 06:59:34;;;;;;;6.88;1.90;;;;;;;11.05;86.76;99396.94;5048622;28;20030;-58
2023/10/28 07:02:00;;;;;;;6.03;2.30;;;;;;;11.05;86.81;99394.16;5050887;28;20051;-61
2023/10/28 07:04:25;;;;;;;3.83;1.70;;;;;;;11.05;86.98;99392.22;5050700;28;20037;-62
2023/10/28 07:06:51;;;;;;;5.97;1.88;;;;;;;11.04;86.67;99393.34;5053780;28;20074;-62
2023/10/28 07:09:18;;;;;;;6.50;1.77;;;;;;;11.04;86.82;99398.03;5045177;28;20041;-62
2023/10/28 07:11:43;;;;;;;6.43;1.67;;;;;;;11.01;87.06;99398.66;5050561;28;20029;-62
2023/10/28 07:14:08;;;;;;;7.20;1.95;;;;;;;11.02;87.46;99401.13;5055509;28;20036;-62
2023/10/28 07:16:34;;;;;;;3.50;1.70;;;;;;;11.04;87.39;99410.00;5046105;28;20663;-61
2023/10/28 07:18:59;;;;;;;4.47;1.90;;;;;;;11.04;87.56;99401.69;5042612;28;20028;-61
2023/10/28 07:21:25;;;;;;;4.13;1.77;;;;;;;11.10;87.46;99401.63;5040722;28;20029;-61
2023/10/28 07:23:50;;;;;;;6.55;2.13;;;;;;;11.10;87.45;99402.44;5055085;28;20056;-61
2023/10/28 07:26:16;;;;;;;8.63;2.00;;;;;;;11.10;87.21;99407.16;5047182;28;20484;-59
2023/10/28 07:28:41;;;;;;;6.88;1.95;;;;;;;11.05;87.49;99408.88;5055754;28;20095;-62
2023/10/28 07:31:07;;;;;;;4.60;1.75;;;;;;;11.08;87.74;99401.88;5051197;28;20170;-63
2023/10/28 07:33:33;;;;;;;5.68;1.55;;;;;;;11.12;87.51;99410.47;5051459;28;20047;-62
2023/10/28 07:36:02;;;;;;;4.55;1.88;;;;;;;11.10;87.23;99410.78;5047034;28;20742;-61
2023/10/28 07:38:27;;;;;;;6.50;2.17;;;;;;;11.10;87.40;99413.53;5052289;28;20503;-62
2023/10/28 07:40:53;;;;;;;4.85;1.60;;;;;;;11.12;87.82;99419.66;5038268;28;20021;-62
2023/10/28 07:43:20;;;;;;;4.88;1.65;;;;;;;11.15;87.90;99416.28;5053374;28;20033;-62
2023/10/28 07:45:46;;;;;;;7.00;1.67;;;;;;;11.19;87.84;99417.34;5056623;28;20037;-62
2023/10/28 07:48:12;;;;;;;5.35;1.73;;;;;;;11.19;87.46;99419.28;5051275;28;20017;-62
2023/10/28 07:50:42;;;;;;;7.22;2.05;;;;;;;11.17;88.20;99424.31;5042377;28;20067;-63
2023/10/28 07:53:08;;;;;;;5.65;2.05;;;;;;;11.20;87.82;99429.28;5057805;28;20032;-62
2023/10/28 07:55:35;;;;;;;5.88;1.88;;;;;;;11.21;88.11;99431.78;5055597;28;20158;-62
2023/10/28 07:58:01;;;;;;;5.22;2.03;;;;;;;11.20;88.26;99440.38;5055695;28;20024;-62
2023/10/28 08:00:26;;;;;;;9.02;2.10;;;;;;;11.24;88.51;99441.50;5055296;28;20093;-63
2023/10/28 08:02:52;;;;;;;7.88;1.75;;;;;;;11.26;87.92;99439.22;5051954;28;20036;-62
2023/10/28 08:05:18;;;;;;;8.73;2.30;;;;;;;11.28;88.26;99437.81;5050711;28;20025;-63
2023/10/28 08:07:47;;;;;;;5.03;2.22;;;;;;;11.31;88.60;99441.94;5051805;28;20100;-63
2023/10/28 08:10:14;;;;;;;5.95;2.47;;;;;;;11.34;88.68;99452.47;5050100;28;20112;-62
2023/10/28 08:12:40;;;;;;;8.18;1.75;;;;;;;11.33;88.64;99450.84;5059682;28;20426;-62
2023/10/28 08:15:09;;;;;;;5.93;2.00;;;;;;;11.38;88.13;99453.56;5059497;28;20029;-63
2023/10/28 08:17:35;;;;;;;6.65;1.95;;;;;;;11.40;88.70;99451.31;5060779;28;20032;-63
2023/10/28 08:20:01;;;;;;;3.83;1.42;;;;;;;11.41;88.28;99444.63;5050166;28;20020;-63
2023/10/28 08:22:27;;;;;;;6.82;2.05;;;;;;;11.44;88.34;99455.19;5057445;28;20020;-63
2023/10/28 08:24:52;;;;;;;7.82;2.20;;;;;;;11.46;88.52;99452.09;5059425;28;20118;-63
2023/10/28 08:27:19;;;;;;;4.22;2.00;;;;;;;11.45;88.24;99454.03;5059639;28;20214;-62
2023/10/28 08:29:44;;;;;;;5.55;2.25;;;;;;;11.47;88.26;99454.56;5053280;28;20078;-62
2023/10/28 08:32:10;;;;;;;9.15;2.33;;;;;;;11.53;88.24;99461.75;5059659;28;20029;-62
2023/10/28 08:34:35;;;;;;;6.38;2.13;;;;;;;11.52;87.92;99462.03;5062689;28;20021;-62
2023/10/28 08:37:01;;;;;;;6.63;1.88;;;;;;;11.53;88.03;99461.75;5058484;28;20129;-63
2023/10/28 08:39:28;;;;;;;5.93;1.88;;;;;;;11.52;87.82;99468.44;5057602;28;20122;-63
2023/10/28 08:41:54;;;;;;;9.18;2.08;;;;;;;11.53;88.16;99472.03;5054245;28;20035;-63
2023/10/28 08:44:27;;;;;;;6.65;1.98;;;;;;;11.54;88.26;99480.06;5049049;28;20033;-63
2023/10/28 08:46:53;;;;;;;8.63;2.30;;;;;;;11.53;88.28;99478.41;5053877;28;20028;-63
2023/10/28 08:49:21;;;;;;;7.57;1.92;;;;;;;11.57;88.48;99480.59;5047740;28;20031;-63
2023/10/28 08:51:51;;;;;;;7.72;2.50;;;;;;;11.58;88.13;99477.53;5054878;28;20099;-62
2023/10/28 08:54:17;;;;;;;6.28;1.83;;;;;;;11.62;88.45;99483.34;5053760;28;20357;-62
2023/10/28 08:56:43;;;;;;;6.68;2.10;;;;;;;11.63;88.59;99482.19;5052121;28;20021;-62
2023/10/28 08:59:10;;;;;;;8.40;2.58;;;;;;;11.65;88.11;99479.97;5053493;28;20037;-62
2023/10/28 09:01:36;;;;;;;8.10;2.10;;;;;;;11.68;88.31;99488.56;5047587;28;20063;-62
2023/10/28 09:04:04;;;;;;;7.45;2.00;;;;;;;11.72;88.17;99483.25;5048234;28;20028;-63
2023/10/28 09:06:30;;;;;;;5.93;1.80;;;;;;;11.75;88.14;99490.97;5046762;28;20029;-62
2023/10/28 09:08:57;;;;;;;8.05;2.15;;;;;;;11.78;87.65;99490.38;5049743;28;20491;-62
2023/10/28 09:11:23;;;;;;;5.65;1.95;;;;;;;11.77;87.49;99497.91;5053692;28;20460;-62
2023/10/28 09:13:48;;;;;;;6.88;2.05;;;;;;;11.77;87.17;99495.13;5052507;28;20120;-62
2023/10/28 09:16:16;;;;;;;5.15;1.50;;;;;;;11.82;87.50;99483.09;5052887;28;20034;-62
2023/10/28 09:18:43;;;;;;;7.32;2.28;;;;;;;11.90;88.00;99490.81;5051748;28;20029;-63
2023/10/28 09:21:09;;;;;;;7.15;2.03;;;;;;;12.01;88.30;99497.94;5049749;28;20048;-63
2023/10/28 09:23:39;;;;;;;10.05;2.25;;;;;;;12.10;88.18;99488.94;5048390;28;20029;-62
2023/10/28 09:26:08;;;;;;;9.82;2.05;;;;;;;12.16;86.23;99490.53;5042971;28;20045;-63
2023/10/28 09:28:35;;;;;;;7.13;1.80;;;;;;;12.19;85.37;99495.53;5059320;28;20029;-63
2023/10/28 09:31:01;;;;;;;8.07;2.22;;;;;;;12.22;85.97;99495.75;5044022;28;20511;-63
2023/10/28 09:33:31;;;;;;;5.75;2.20;;;;;;;12.27;85.92;99506.00;5045500;28;20021;-63
2023/10/28 09:35:58;;;;;;;6.57;2.10;;;;;;;12.27;85.55;99509.59;5049665;28;20040;-63
2023/10/28 09:38:23;;;;;;;7.88;2.05;;;;;;;12.24;84.17;99496.28;5055494;28;20031;-63
2023/10/28 09:40:49;;;;;;;8.73;2.00;;;;;;;12.23;84.58;99499.38;5044964;28;20044;-63
2023/10/28 09:43:15;;;;;;;7.07;2.20;;;;;;;12.22;83.62;99498.53;5058051;28;20025;-64
2023/10/28 09:45:45;;;;;;;6.35;2.00;;;;;;;12.22;83.60;99500.47;5051093;28;20431;-63
2023/10/28 09:48:14;;;;;;;5.85;1.83;;;;;;;12.24;84.32;99498.22;5051924;28;20036;-64
2023/10/28 09:50:48;;;;;;;5.40;2.00;;;;;;;12.25;83.49;99499.88;5067138;28;20434;-64
2023/10/28 09:53:15;;;;;;;7.70;1.88;;;;;;;12.28;83.44;99497.34;5051378;28;20396;-63
2023/10/28 09:55:43;;;;;;;8.25;2.08;;;;;;;12.31;83.36;99490.34;5056391;28;20182;-64
2023/10/28 09:58:15;;;;;;;7.47;1.70;;;;;;;12.35;82.95;99499.75;5062008;28;20044;-64
2023/10/28 10:00:42;;;;;;;7.72;1.77;;;;;;;12.46;81.73;99495.72;5054259;28;20068;-63
2023/10/28 10:03:46;;;;;;;8.35;1.98;;;;;;;12.65;81.48;99492.13;5052662;28;20033;-63
2023/10/28 10:06:12;;;;;;;6.90;1.85;;;;;;;12.77;80.99;99490.56;5047747;28;20031;-64
2023/10/28 10:08:48;;;;;;;5.43;1.70;;;;;;;12.96;81.51;99493.31;5054632;28;20021;-63
2023/10/28 10:11:13;;;;;;;4.97;1.83;;;;;;;13.13;80.17;99492.78;5050939;28;20063;-63
2023/10/28 10:13:43;;;;;;;8.13;2.00;;;;;;;13.33;79.07;99500.00;5057963;28;20100;-64
2023/10/28 10:16:19;;;;;;;7.13;1.85;;;;;;;13.44;78.09;99504.28;5048057;28;20350;-63
2023/10/28 10:18:50;;;;;;;6.22;1.50;;;;;;;13.55;76.91;99499.34;5041951;28;20024;-63
2023/10/28 10:21:20;;;;;;;6.60;1.65;;;;;;;13.60;75.54;99506.81;5044707;28;20104;-62
2023/10/28 10:23:53;;;;;;;5.57;1.92;;;;;;;13.55;74.43;99509.66;5053774;28;20032;-62
2023/10/28 10:26:33;;;;;;;7.72;1.90;;;;;;;13.50;76.40;99514.19;5050706;28;20487;-62
2023/10/28 10:28:59;;;;;;;6.38;1.48;;;;;;;13.43;74.91;99510.97;5042342;28;20024;-63
2023/10/28 10:31:30;;;;;;;6.30;2.20;;;;;;;13.36;74.86;99513.34;5048567;28;20499;-63
2023/10/28 10:34:08;;;;;;;6.10;2.28;;;;;;;13.31;75.63;99513.41;5068179;28;20067;-63
2023/10/28 10:36:43;;;;;;;7.90;1.92;;;;;;;13.27;75.84;99512.38;5058002;28;20025;-63
2023/10/28 10:39:16;;;;;;;6.10;1.70;;;;;;;13.24;75.87;99513.81;5051641;28;20016;-63
2023/10/28 10:41:49;;;;;;;4.45;1.73;;;;;;;13.23;75.45;99502.97;5048061;28;20433;-63
2023/10/28 10:44:23;;;;;;;9.20;1.88;;;;;;;13.20;74.70;99511.88;5046189;28;20066;-64
2023/10/28 10:46:49;;;;;;;9.32;2.20;;;;;;;13.17;73.45;99507.78;5037313;28;20032;-62
2023/10/28 10:49:14;;;;;;;6.53;1.90;;;;;;;13.16;73.31;99508.88;5049380;28;20845;-63
2023/10/28 10:51:44;;;;;;;6.22;2.05;;;;;;;13.18;74.13;99511.38;5056562;28;20037;-63
2023/10/28 10:54:10;;;;;;;8.35;1.80;;;;;;;13.18;73.19;99511.38;5047638;28;20017;-61
2023/10/28 10:56:35;;;;;;;6.80;1.63;;;;;;;13.28;74.38;99505.66;5049652;28;20440;-61
2023/10/28 10:59:00;;;;;;;6.60;1.90;;;;;;;13.33;74.10;99505.59;5051536;28;20025;-61
2023/10/28 11:01:28;;;;;;;7.35;1.92;;;;;;;13.39;74.39;99501.56;5057845;28;20040;-63
2023/10/28 11:03:55;;;;;;;8.75;2.00;;;;;;;13.45;73.35;99513.47;5053519;28;20408;-61
2023/10/28 11:06:21;;;;;;;7.53;2.10;;;;;;;13.53;74.06;99507.19;5050144;28;20376;-63
2023/10/28 11:08:52;;;;;;;6.78;1.88;;;;;;;13.53;73.28;99496.03;5062323;28;20392;-61
2023/10/28 11:11:18;;;;;;;7.32;1.95;;;;;;;13.56;71.40;99500.16;5054419;28;20044;-61
2023/10/28 11:13:44;;;;;;;6.75;1.88;;;;;;;13.58;71.39;99492.34;5047348;28;20096;-62
2023/10/28 11:16:26;;;;;;;8.65;1.92;;;;;;;13.61;72.34;99491.72;5050629;28;20029;-61
2023/10/28 11:18:52;;;;;;;7.07;2.00;;;;;;;13.64;71.84;99491.94;5044959;28;20028;-61
2023/10/28 11:21:22;;;;;;;11.32;2.28;;;;;;;13.69;71.45;99491.03;5067071;28;20024;-61
2023/10/28 11:23:47;;;;;;;11.38;2.75;;;;;;;13.68;70.13;99486.59;5052915;28;20733;-60
2023/10/28 11:26:18;;;;;;;12.35;2.67;;;;;;;13.70;70.63;99489.88;5051500;28;20050;-60
2023/10/28 11:28:44;;;;;;;11.20;2.28;;;;;;;13.70;69.88;99498.25;5044491;28;20037;-60
2023/10/28 11:31:11;;;;;;;10.90;2.78;;;;;;;13.71;70.11;99497.09;5048808;28;20040;-60